sensor_id;sensor_type;location;lat;lon;timestamp;P1;durP1;ratioP1;P2;durP2;ratioP2
52940;SDS011;62001;53.366;6.636;2022-11-15T00:01:38;48.70;;;27.60;;
52940;SDS011;62001;53.366;6.636;2022-11-15T00:04:04;47.72;;;29.20;;
52940;SDS011;62001;53.366;6.636;2022-11-15T00:06:30;46.35;;;30.02;;
52940;SDS011;62001;53.366;6.636;2022-11-15T00:08:59;40.78;;;27.13;;
52940;SDS011;62001;53.366;6.636;2022-11-15T00:11:26;43.35;;;27.88;;
52940;SDS011;62001;53.366;6.636;2022-11-15T00:13:55;43.65;;;28.73;;
52940;SDS011;62001;53.366;6.636;2022-11-15T00:16:22;48.15;;;29.17;;
52940;SDS011;62001;53.366;6.636;2022-11-15T00:18:48;44.78;;;28.23;;
52940;SDS011;62001;53.366;6.636;2022-11-15T00:21:14;46.70;;;28.55;;
52940;SDS011;62001;53.366;6.636;2022-11-15T00:23:40;45.17;;;28.35;;
52940;SDS011;62001;53.366;6.636;2022-11-15T00:26:07;44.53;;;28.60;;
52940;SDS011;62001;53.366;6.636;2022-11-15T00:28:36;44.25;;;28.63;;
52940;SDS011;62001;53.366;6.636;2022-11-15T00:31:03;41.92;;;27.63;;
52940;SDS011;62001;53.366;6.636;2022-11-15T00:33:30;44.50;;;27.98;;
52940;SDS011;62001;53.366;6.636;2022-11-15T00:36:14;40.15;;;26.05;;
52940;SDS011;62001;53.366;6.636;2022-11-15T00:38:40;41.53;;;26.45;;
52940;SDS011;62001;53.366;6.636;2022-11-15T00:41:06;38.78;;;26.05;;
52940;SDS011;62001;53.366;6.636;2022-11-15T00:43:33;38.90;;;24.55;;
52940;SDS011;62001;53.366;6.636;2022-11-15T00:45:59;38.92;;;24.55;;
52940;SDS011;62001;53.366;6.636;2022-11-15T00:48:25;39.72;;;25.95;;
52940;SDS011;62001;53.366;6.636;2022-11-15T00:50:51;40.03;;;24.45;;
52940;SDS011;62001;53.366;6.636;2022-11-15T00:53:16;43.08;;;24.80;;
52940;SDS011;62001;53.366;6.636;2022-11-15T00:55:42;41.35;;;26.65;;
52940;SDS011;62001;53.366;6.636;2022-11-15T00:58:08;39.87;;;25.73;;
52940;SDS011;62001;53.366;6.636;2022-11-15T01:00:34;41.33;;;25.77;;
52940;SDS011;62001;53.366;6.636;2022-11-15T01:03:00;39.80;;;27.00;;
52940;SDS011;62001;53.366;6.636;2022-11-15T01:05:27;43.38;;;27.58;;
52940;SDS011;62001;53.366;6.636;2022-11-15T01:07:53;44.80;;;27.57;;
52940;SDS011;62001;53.366;6.636;2022-11-15T01:10:21;44.63;;;27.77;;
52940;SDS011;62001;53.366;6.636;2022-11-15T01:12:50;46.42;;;28.38;;
52940;SDS011;62001;53.366;6.636;2022-11-15T01:15:16;48.40;;;27.70;;
52940;SDS011;62001;53.366;6.636;2022-11-15T01:17:42;45.10;;;30.00;;
52940;SDS011;62001;53.366;6.636;2022-11-15T01:20:08;47.17;;;29.60;;
52940;SDS011;62001;53.366;6.636;2022-11-15T01:22:34;44.13;;;28.77;;
52940;SDS011;62001;53.366;6.636;2022-11-15T01:25:00;40.07;;;26.60;;
52940;SDS011;62001;53.366;6.636;2022-11-15T01:27:26;43.77;;;28.50;;
52940;SDS011;62001;53.366;6.636;2022-11-15T01:29:52;40.13;;;27.00;;
52940;SDS011;62001;53.366;6.636;2022-11-15T01:32:17;41.87;;;26.70;;
52940;SDS011;62001;53.366;6.636;2022-11-15T01:34:43;39.00;;;25.87;;
52940;SDS011;62001;53.366;6.636;2022-11-15T01:37:09;34.97;;;23.97;;
52940;SDS011;62001;53.366;6.636;2022-11-15T01:39:35;36.57;;;25.33;;
52940;SDS011;62001;53.366;6.636;2022-11-15T01:42:01;39.93;;;24.57;;
52940;SDS011;62001;53.366;6.636;2022-11-15T01:46:59;42.13;;;27.37;;
52940;SDS011;62001;53.366;6.636;2022-11-15T01:49:35;41.23;;;26.33;;
52940;SDS011;62001;53.366;6.636;2022-11-15T01:52:05;43.17;;;26.17;;
52940;SDS011;62001;53.366;6.636;2022-11-15T01:54:37;43.33;;;27.20;;
52940;SDS011;62001;53.366;6.636;2022-11-15T01:57:05;42.70;;;27.30;;
52940;SDS011;62001;53.366;6.636;2022-11-15T01:59:34;43.88;;;28.40;;
52940;SDS011;62001;53.366;6.636;2022-11-15T02:02:02;41.90;;;27.90;;
52940;SDS011;62001;53.366;6.636;2022-11-15T02:04:28;51.30;;;30.43;;
52940;SDS011;62001;53.366;6.636;2022-11-15T02:07:01;44.53;;;29.60;;
52940;SDS011;62001;53.366;6.636;2022-11-15T02:09:29;42.93;;;28.30;;
52940;SDS011;62001;53.366;6.636;2022-11-15T02:11:55;43.13;;;29.03;;
52940;SDS011;62001;53.366;6.636;2022-11-15T02:14:21;42.73;;;28.53;;
52940;SDS011;62001;53.366;6.636;2022-11-15T02:19:40;44.90;;;28.40;;
52940;SDS011;62001;53.366;6.636;2022-11-15T02:22:35;44.90;;;28.27;;
52940;SDS011;62001;53.366;6.636;2022-11-15T02:25:17;46.23;;;29.30;;
52940;SDS011;62001;53.366;6.636;2022-11-15T02:33:28;47.57;;;29.37;;
52940;SDS011;62001;53.366;6.636;2022-11-15T02:36:11;45.70;;;29.20;;
52940;SDS011;62001;53.366;6.636;2022-11-15T02:38:53;43.13;;;27.70;;
52940;SDS011;62001;53.366;6.636;2022-11-15T02:44:17;41.50;;;26.20;;
52940;SDS011;62001;53.366;6.636;2022-11-15T02:47:01;41.93;;;26.50;;
52940;SDS011;62001;53.366;6.636;2022-11-15T02:49:49;42.60;;;25.53;;
52940;SDS011;62001;53.366;6.636;2022-11-15T02:52:18;41.63;;;25.80;;
52940;SDS011;62001;53.366;6.636;2022-11-15T02:54:56;35.63;;;23.90;;
52940;SDS011;62001;53.366;6.636;2022-11-15T03:00:10;39.63;;;24.20;;
52940;SDS011;62001;53.366;6.636;2022-11-15T03:08:00;41.47;;;24.20;;
52940;SDS011;62001;53.366;6.636;2022-11-15T03:16:10;38.60;;;24.73;;
52940;SDS011;62001;53.366;6.636;2022-11-15T03:18:43;41.13;;;24.70;;
52940;SDS011;62001;53.366;6.636;2022-11-15T03:21:13;43.67;;;25.67;;
52940;SDS011;62001;53.366;6.636;2022-11-15T03:23:41;46.43;;;26.67;;
52940;SDS011;62001;53.366;6.636;2022-11-15T03:26:09;47.97;;;26.83;;
52940;SDS011;62001;53.366;6.636;2022-11-15T03:31:29;49.88;;;27.15;;
52940;SDS011;62001;53.366;6.636;2022-11-15T03:34:13;48.95;;;27.25;;
52940;SDS011;62001;53.366;6.636;2022-11-15T03:37:01;51.30;;;28.05;;
52940;SDS011;62001;53.366;6.636;2022-11-15T03:39:27;49.83;;;27.50;;
52940;SDS011;62001;53.366;6.636;2022-11-15T03:42:01;51.70;;;27.87;;
52940;SDS011;62001;53.366;6.636;2022-11-15T03:45:10;49.97;;;27.07;;
52940;SDS011;62001;53.366;6.636;2022-11-15T03:47:48;52.80;;;27.57;;
52940;SDS011;62001;53.366;6.636;2022-11-15T03:50:26;48.20;;;27.70;;
52940;SDS011;62001;53.366;6.636;2022-11-15T03:52:53;46.78;;;27.15;;
52940;SDS011;62001;53.366;6.636;2022-11-15T03:55:21;51.53;;;28.47;;
52940;SDS011;62001;53.366;6.636;2022-11-15T03:57:48;50.00;;;26.40;;
52940;SDS011;62001;53.366;6.636;2022-11-15T04:00:17;51.22;;;27.00;;
52940;SDS011;62001;53.366;6.636;2022-11-15T04:02:43;53.17;;;28.07;;
52940;SDS011;62001;53.366;6.636;2022-11-15T04:05:09;47.40;;;26.23;;
52940;SDS011;62001;53.366;6.636;2022-11-15T04:07:35;53.70;;;28.70;;
52940;SDS011;62001;53.366;6.636;2022-11-15T04:10:01;55.50;;;28.60;;
52940;SDS011;62001;53.366;6.636;2022-11-15T04:12:38;54.70;;;27.60;;
52940;SDS011;62001;53.366;6.636;2022-11-15T04:15:11;55.87;;;27.93;;
52940;SDS011;62001;53.366;6.636;2022-11-15T04:17:40;51.37;;;27.60;;
52940;SDS011;62001;53.366;6.636;2022-11-15T04:20:43;53.75;;;26.52;;
52940;SDS011;62001;53.366;6.636;2022-11-15T04:23:21;50.60;;;26.90;;
52940;SDS011;62001;53.366;6.636;2022-11-15T04:26:12;54.03;;;27.45;;
52940;SDS011;62001;53.366;6.636;2022-11-15T04:28:41;45.35;;;25.33;;
52940;SDS011;62001;53.366;6.636;2022-11-15T04:31:25;43.30;;;25.15;;
52940;SDS011;62001;53.366;6.636;2022-11-15T04:33:52;50.30;;;26.88;;
52940;SDS011;62001;53.366;6.636;2022-11-15T04:36:18;52.42;;;26.63;;
52940;SDS011;62001;53.366;6.636;2022-11-15T04:39:03;48.33;;;25.85;;
52940;SDS011;62001;53.366;6.636;2022-11-15T04:41:29;49.67;;;27.23;;
52940;SDS011;62001;53.366;6.636;2022-11-15T04:43:54;48.58;;;26.13;;
52940;SDS011;62001;53.366;6.636;2022-11-15T04:46:21;51.17;;;26.05;;
52940;SDS011;62001;53.366;6.636;2022-11-15T04:48:47;47.15;;;26.10;;
52940;SDS011;62001;53.366;6.636;2022-11-15T04:51:13;48.72;;;26.23;;
52940;SDS011;62001;53.366;6.636;2022-11-15T04:53:39;49.05;;;26.70;;
52940;SDS011;62001;53.366;6.636;2022-11-15T04:56:04;52.83;;;27.52;;
52940;SDS011;62001;53.366;6.636;2022-11-15T04:58:30;49.67;;;27.15;;
52940;SDS011;62001;53.366;6.636;2022-11-15T05:00:56;50.65;;;27.23;;
52940;SDS011;62001;53.366;6.636;2022-11-15T05:03:22;50.35;;;26.23;;
52940;SDS011;62001;53.366;6.636;2022-11-15T05:06:06;57.60;;;28.20;;
52940;SDS011;62001;53.366;6.636;2022-11-15T05:08:32;54.40;;;28.13;;
52940;SDS011;62001;53.366;6.636;2022-11-15T05:10:58;53.42;;;27.85;;
52940;SDS011;62001;53.366;6.636;2022-11-15T05:13:24;63.33;;;29.05;;
52940;SDS011;62001;53.366;6.636;2022-11-15T05:15:50;58.55;;;29.27;;
52940;SDS011;62001;53.366;6.636;2022-11-15T05:18:16;61.92;;;28.95;;
52940;SDS011;62001;53.366;6.636;2022-11-15T05:20:41;60.35;;;29.88;;
52940;SDS011;62001;53.366;6.636;2022-11-15T05:23:07;62.40;;;31.37;;
52940;SDS011;62001;53.366;6.636;2022-11-15T05:25:33;71.67;;;31.53;;
52940;SDS011;62001;53.366;6.636;2022-11-15T05:28:00;67.67;;;32.10;;
52940;SDS011;62001;53.366;6.636;2022-11-15T05:30:26;75.10;;;34.27;;
52940;SDS011;62001;53.366;6.636;2022-11-15T05:32:52;72.82;;;31.90;;
52940;SDS011;62001;53.366;6.636;2022-11-15T05:35:20;78.32;;;33.13;;
52940;SDS011;62001;53.366;6.636;2022-11-15T05:37:54;81.95;;;33.97;;
52940;SDS011;62001;53.366;6.636;2022-11-15T05:40:20;86.15;;;36.17;;
52940;SDS011;62001;53.366;6.636;2022-11-15T05:42:46;89.00;;;35.57;;
52940;SDS011;62001;53.366;6.636;2022-11-15T05:45:12;83.05;;;37.05;;
52940;SDS011;62001;53.366;6.636;2022-11-15T05:47:39;88.13;;;35.55;;
52940;SDS011;62001;53.366;6.636;2022-11-15T05:50:05;84.13;;;37.78;;
52940;SDS011;62001;53.366;6.636;2022-11-15T05:52:33;87.20;;;38.00;;
52940;SDS011;62001;53.366;6.636;2022-11-15T05:55:02;96.30;;;39.40;;
52940;SDS011;62001;53.366;6.636;2022-11-15T05:57:30;90.10;;;40.10;;
52940;SDS011;62001;53.366;6.636;2022-11-15T05:59:56;96.28;;;40.05;;
52940;SDS011;62001;53.366;6.636;2022-11-15T06:02:22;108.10;;;42.60;;
52940;SDS011;62001;53.366;6.636;2022-11-15T06:04:47;104.43;;;42.22;;
52940;SDS011;62001;53.366;6.636;2022-11-15T06:07:13;105.82;;;44.22;;
52940;SDS011;62001;53.366;6.636;2022-11-15T06:09:39;116.45;;;43.53;;
52940;SDS011;62001;53.366;6.636;2022-11-15T06:12:05;111.45;;;42.83;;
52940;SDS011;62001;53.366;6.636;2022-11-15T06:14:31;112.05;;;44.63;;
52940;SDS011;62001;53.366;6.636;2022-11-15T06:16:56;115.75;;;44.83;;
52940;SDS011;62001;53.366;6.636;2022-11-15T06:19:22;126.55;;;45.40;;
52940;SDS011;62001;53.366;6.636;2022-11-15T06:21:48;119.97;;;46.58;;
52940;SDS011;62001;53.366;6.636;2022-11-15T06:24:14;130.93;;;46.63;;
52940;SDS011;62001;53.366;6.636;2022-11-15T06:26:39;141.60;;;45.87;;
52940;SDS011;62001;53.366;6.636;2022-11-15T06:29:05;139.18;;;46.72;;
52940;SDS011;62001;53.366;6.636;2022-11-15T06:31:31;130.50;;;47.50;;
52940;SDS011;62001;53.366;6.636;2022-11-15T06:33:58;136.95;;;49.55;;
52940;SDS011;62001;53.366;6.636;2022-11-15T06:36:24;127.95;;;46.80;;
52940;SDS011;62001;53.366;6.636;2022-11-15T06:38:49;136.45;;;47.60;;
52940;SDS011;62001;53.366;6.636;2022-11-15T06:41:16;151.60;;;48.53;;
52940;SDS011;62001;53.366;6.636;2022-11-15T06:43:42;146.95;;;49.83;;
52940;SDS011;62001;53.366;6.636;2022-11-15T06:46:08;159.75;;;50.92;;
52940;SDS011;62001;53.366;6.636;2022-11-15T06:48:34;151.00;;;50.65;;
52940;SDS011;62001;53.366;6.636;2022-11-15T06:51:01;162.32;;;51.22;;
52940;SDS011;62001;53.366;6.636;2022-11-15T06:53:29;167.00;;;52.03;;
52940;SDS011;62001;53.366;6.636;2022-11-15T06:55:58;164.85;;;53.55;;
52940;SDS011;62001;53.366;6.636;2022-11-15T06:58:28;151.73;;;52.05;;
52940;SDS011;62001;53.366;6.636;2022-11-15T07:00:57;155.57;;;53.00;;
52940;SDS011;62001;53.366;6.636;2022-11-15T07:03:30;171.05;;;56.22;;
52940;SDS011;62001;53.366;6.636;2022-11-15T07:05:57;156.75;;;53.63;;
52940;SDS011;62001;53.366;6.636;2022-11-15T07:08:24;156.98;;;53.17;;
52940;SDS011;62001;53.366;6.636;2022-11-15T07:10:52;166.93;;;52.88;;
52940;SDS011;62001;53.366;6.636;2022-11-15T07:13:18;160.68;;;54.05;;
52940;SDS011;62001;53.366;6.636;2022-11-15T07:15:43;160.88;;;53.35;;
52940;SDS011;62001;53.366;6.636;2022-11-15T07:18:09;154.93;;;55.15;;
52940;SDS011;62001;53.366;6.636;2022-11-15T07:20:35;150.10;;;52.33;;
52940;SDS011;62001;53.366;6.636;2022-11-15T07:23:01;151.38;;;54.75;;
52940;SDS011;62001;53.366;6.636;2022-11-15T07:25:28;154.77;;;55.38;;
52940;SDS011;62001;53.366;6.636;2022-11-15T07:27:55;151.98;;;52.83;;
52940;SDS011;62001;53.366;6.636;2022-11-15T07:30:21;150.95;;;52.78;;
52940;SDS011;62001;53.366;6.636;2022-11-15T07:32:51;148.07;;;52.92;;
52940;SDS011;62001;53.366;6.636;2022-11-15T07:35:25;144.80;;;52.80;;
52940;SDS011;62001;53.366;6.636;2022-11-15T07:37:55;140.80;;;55.22;;
52940;SDS011;62001;53.366;6.636;2022-11-15T07:40:29;147.93;;;54.28;;
52940;SDS011;62001;53.366;6.636;2022-11-15T07:43:00;150.45;;;55.40;;
52940;SDS011;62001;53.366;6.636;2022-11-15T07:45:27;143.80;;;54.45;;
52940;SDS011;62001;53.366;6.636;2022-11-15T07:47:53;145.75;;;52.97;;
52940;SDS011;62001;53.366;6.636;2022-11-15T07:50:21;142.85;;;52.45;;
52940;SDS011;62001;53.366;6.636;2022-11-15T07:52:47;139.32;;;51.53;;
52940;SDS011;62001;53.366;6.636;2022-11-15T07:55:17;147.18;;;54.30;;
52940;SDS011;62001;53.366;6.636;2022-11-15T07:57:43;127.22;;;52.08;;
52940;SDS011;62001;53.366;6.636;2022-11-15T08:00:09;142.23;;;54.60;;
52940;SDS011;62001;53.366;6.636;2022-11-15T08:02:35;138.20;;;52.15;;
52940;SDS011;62001;53.366;6.636;2022-11-15T08:05:01;142.50;;;52.88;;
52940;SDS011;62001;53.366;6.636;2022-11-15T08:07:28;134.00;;;50.92;;
52940;SDS011;62001;53.366;6.636;2022-11-15T08:09:55;117.63;;;50.15;;
52940;SDS011;62001;53.366;6.636;2022-11-15T08:12:21;117.20;;;50.92;;
52940;SDS011;62001;53.366;6.636;2022-11-15T08:14:47;114.22;;;48.67;;
52940;SDS011;62001;53.366;6.636;2022-11-15T08:17:13;124.68;;;50.10;;
52940;SDS011;62001;53.366;6.636;2022-11-15T08:19:39;109.35;;;47.70;;
52940;SDS011;62001;53.366;6.636;2022-11-15T08:22:05;110.80;;;48.70;;
52940;SDS011;62001;53.366;6.636;2022-11-15T08:24:31;107.22;;;48.17;;
52940;SDS011;62001;53.366;6.636;2022-11-15T08:26:57;101.40;;;45.05;;
52940;SDS011;62001;53.366;6.636;2022-11-15T08:29:23;104.45;;;46.15;;
52940;SDS011;62001;53.366;6.636;2022-11-15T08:31:49;98.38;;;44.90;;
52940;SDS011;62001;53.366;6.636;2022-11-15T08:34:14;99.07;;;44.92;;
52940;SDS011;62001;53.366;6.636;2022-11-15T08:36:41;89.43;;;43.10;;
52940;SDS011;62001;53.366;6.636;2022-11-15T08:39:09;89.93;;;43.72;;
52940;SDS011;62001;53.366;6.636;2022-11-15T08:41:37;86.53;;;40.33;;
52940;SDS011;62001;53.366;6.636;2022-11-15T08:44:03;87.15;;;41.42;;
52940;SDS011;62001;53.366;6.636;2022-11-15T08:46:29;77.07;;;38.95;;
52940;SDS011;62001;53.366;6.636;2022-11-15T08:48:55;84.03;;;39.75;;
52940;SDS011;62001;53.366;6.636;2022-11-15T08:51:20;73.00;;;38.60;;
52940;SDS011;62001;53.366;6.636;2022-11-15T08:53:46;75.30;;;38.70;;
52940;SDS011;62001;53.366;6.636;2022-11-15T08:56:13;70.35;;;37.85;;
52940;SDS011;62001;53.366;6.636;2022-11-15T08:58:40;73.13;;;37.70;;
52940;SDS011;62001;53.366;6.636;2022-11-15T09:01:13;66.40;;;36.22;;
52940;SDS011;62001;53.366;6.636;2022-11-15T09:03:41;61.13;;;35.45;;
52940;SDS011;62001;53.366;6.636;2022-11-15T09:06:07;63.40;;;35.38;;
52940;SDS011;62001;53.366;6.636;2022-11-15T09:08:34;64.53;;;34.50;;
52940;SDS011;62001;53.366;6.636;2022-11-15T09:11:03;59.40;;;33.33;;
52940;SDS011;62001;53.366;6.636;2022-11-15T09:13:29;54.72;;;32.15;;
52940;SDS011;62001;53.366;6.636;2022-11-15T09:16:01;60.22;;;32.53;;
52940;SDS011;62001;53.366;6.636;2022-11-15T09:18:27;50.28;;;32.47;;
52940;SDS011;62001;53.366;6.636;2022-11-15T09:21:00;55.72;;;31.55;;
52940;SDS011;62001;53.366;6.636;2022-11-15T09:23:27;49.58;;;30.33;;
52940;SDS011;62001;53.366;6.636;2022-11-15T09:25:57;47.78;;;28.50;;
52940;SDS011;62001;53.366;6.636;2022-11-15T09:28:25;43.35;;;27.50;;
52940;SDS011;62001;53.366;6.636;2022-11-15T09:30:51;44.33;;;27.92;;
52940;SDS011;62001;53.366;6.636;2022-11-15T09:33:16;43.67;;;26.65;;
52940;SDS011;62001;53.366;6.636;2022-11-15T09:35:42;39.30;;;26.00;;
52940;SDS011;62001;53.366;6.636;2022-11-15T09:38:09;37.25;;;24.67;;
52940;SDS011;62001;53.366;6.636;2022-11-15T09:40:35;37.55;;;24.70;;
52940;SDS011;62001;53.366;6.636;2022-11-15T09:45:54;36.25;;;23.55;;
52940;SDS011;62001;53.366;6.636;2022-11-15T09:51:35;31.02;;;21.38;;
52940;SDS011;62001;53.366;6.636;2022-11-15T09:57:28;30.15;;;20.52;;
52940;SDS011;62001;53.366;6.636;2022-11-15T10:05:28;28.65;;;20.48;;
52940;SDS011;62001;53.366;6.636;2022-11-15T10:08:01;32.10;;;21.45;;
52940;SDS011;62001;53.366;6.636;2022-11-15T10:10:47;31.85;;;20.10;;
52940;SDS011;62001;53.366;6.636;2022-11-15T10:13:20;31.50;;;20.02;;
52940;SDS011;62001;53.366;6.636;2022-11-15T10:15:50;28.55;;;18.75;;
52940;SDS011;62001;53.366;6.636;2022-11-15T10:21:38;28.92;;;19.10;;
52940;SDS011;62001;53.366;6.636;2022-11-15T10:24:17;29.52;;;19.73;;
52940;SDS011;62001;53.366;6.636;2022-11-15T10:26:48;28.80;;;19.85;;
52940;SDS011;62001;53.366;6.636;2022-11-15T10:29:21;29.92;;;19.67;;
52940;SDS011;62001;53.366;6.636;2022-11-15T10:31:48;32.72;;;19.52;;
52940;SDS011;62001;53.366;6.636;2022-11-15T10:34:22;29.15;;;20.80;;
52940;SDS011;62001;53.366;6.636;2022-11-15T10:36:58;34.60;;;20.70;;
52940;SDS011;62001;53.366;6.636;2022-11-15T10:39:27;31.63;;;20.65;;
52940;SDS011;62001;53.366;6.636;2022-11-15T10:41:53;30.33;;;19.88;;
52940;SDS011;62001;53.366;6.636;2022-11-15T10:44:20;32.67;;;20.50;;
52940;SDS011;62001;53.366;6.636;2022-11-15T10:49:25;31.88;;;20.88;;
52940;SDS011;62001;53.366;6.636;2022-11-15T10:57:25;30.23;;;21.02;;
52940;SDS011;62001;53.366;6.636;2022-11-15T10:59:55;31.70;;;20.30;;
52940;SDS011;62001;53.366;6.636;2022-11-15T11:04:52;31.25;;;20.75;;
52940;SDS011;62001;53.366;6.636;2022-11-15T11:07:22;31.75;;;21.17;;
52940;SDS011;62001;53.366;6.636;2022-11-15T11:10:04;32.60;;;22.05;;
52940;SDS011;62001;53.366;6.636;2022-11-15T11:12:42;30.60;;;21.42;;
52940;SDS011;62001;53.366;6.636;2022-11-15T11:15:10;30.92;;;22.10;;
52940;SDS011;62001;53.366;6.636;2022-11-15T11:23:09;32.28;;;22.35;;
52940;SDS011;62001;53.366;6.636;2022-11-15T11:26:01;30.90;;;21.02;;
52940;SDS011;62001;53.366;6.636;2022-11-15T11:31:36;33.63;;;23.60;;
52940;SDS011;62001;53.366;6.636;2022-11-15T11:37:30;31.30;;;22.95;;
52940;SDS011;62001;53.366;6.636;2022-11-15T11:42:55;32.50;;;23.25;;
52940;SDS011;62001;53.366;6.636;2022-11-15T11:48:48;32.05;;;24.38;;
52940;SDS011;62001;53.366;6.636;2022-11-15T11:51:32;34.22;;;22.50;;
52940;SDS011;62001;53.366;6.636;2022-11-15T11:54:25;29.63;;;22.50;;
52940;SDS011;62001;53.366;6.636;2022-11-15T11:56:58;28.33;;;22.23;;
52940;SDS011;62001;53.366;6.636;2022-11-15T12:03:29;28.13;;;20.42;;
52940;SDS011;62001;53.366;6.636;2022-11-15T12:05:40;26.38;;;19.42;;
52940;SDS011;62001;53.366;6.636;2022-11-15T12:11:00;27.15;;;20.10;;
52940;SDS011;62001;53.366;6.636;2022-11-15T12:13:33;27.02;;;20.60;;
52940;SDS011;62001;53.366;6.636;2022-11-15T12:16:12;24.23;;;19.77;;
52940;SDS011;62001;53.366;6.636;2022-11-15T12:18:46;24.52;;;19.00;;
52940;SDS011;62001;53.366;6.636;2022-11-15T12:21:17;22.45;;;18.02;;
52940;SDS011;62001;53.366;6.636;2022-11-15T12:23:50;19.70;;;15.82;;
52940;SDS011;62001;53.366;6.636;2022-11-15T12:26:22;18.63;;;14.25;;
52940;SDS011;62001;53.366;6.636;2022-11-15T12:28:55;15.23;;;12.80;;
52940;SDS011;62001;53.366;6.636;2022-11-15T12:34:49;22.58;;;13.63;;
52940;SDS011;62001;53.366;6.636;2022-11-15T12:36:52;15.10;;;12.52;;
52940;SDS011;62001;53.366;6.636;2022-11-15T12:39:18;15.10;;;12.40;;
52940;SDS011;62001;53.366;6.636;2022-11-15T13:02:19;18.83;;;11.70;;
52940;SDS011;62001;53.366;6.636;2022-11-15T13:04:50;14.45;;;11.50;;
52940;SDS011;62001;53.366;6.636;2022-11-15T13:12:52;10.90;;;8.38;;
52940;SDS011;62001;53.366;6.636;2022-11-15T13:17:55;11.60;;;7.57;;
52940;SDS011;62001;53.366;6.636;2022-11-15T13:20:23;9.77;;;7.82;;
52940;SDS011;62001;53.366;6.636;2022-11-15T13:30:35;9.07;;;7.65;;
52940;SDS011;62001;53.366;6.636;2022-11-15T13:33:13;11.90;;;6.90;;
52940;SDS011;62001;53.366;6.636;2022-11-15T13:35:41;11.48;;;6.30;;
52940;SDS011;62001;53.366;6.636;2022-11-15T13:40:55;10.32;;;5.68;;
52940;SDS011;62001;53.366;6.636;2022-11-15T13:48:54;9.25;;;5.60;;
52940;SDS011;62001;53.366;6.636;2022-11-15T13:56:42;7.93;;;4.80;;
52940;SDS011;62001;53.366;6.636;2022-11-15T13:59:28;6.70;;;4.70;;
52940;SDS011;62001;53.366;6.636;2022-11-15T14:02:03;10.65;;;4.63;;
52940;SDS011;62001;53.366;6.636;2022-11-15T14:04:38;9.65;;;4.50;;
52940;SDS011;62001;53.366;6.636;2022-11-15T14:07:15;7.82;;;4.55;;
52940;SDS011;62001;53.366;6.636;2022-11-15T14:09:46;6.82;;;4.68;;
52940;SDS011;62001;53.366;6.636;2022-11-15T14:12:31;8.60;;;4.28;;
52940;SDS011;62001;53.366;6.636;2022-11-15T14:14:59;9.60;;;4.18;;
52940;SDS011;62001;53.366;6.636;2022-11-15T14:19:55;11.52;;;4.60;;
52940;SDS011;62001;53.366;6.636;2022-11-15T14:22:23;7.68;;;5.30;;
52940;SDS011;62001;53.366;6.636;2022-11-15T14:27:44;11.10;;;5.95;;
52940;SDS011;62001;53.366;6.636;2022-11-15T14:30:29;11.25;;;5.97;;
52940;SDS011;62001;53.366;6.636;2022-11-15T14:32:55;10.05;;;5.70;;
52940;SDS011;62001;53.366;6.636;2022-11-15T14:35:21;12.63;;;5.88;;
52940;SDS011;62001;53.366;6.636;2022-11-15T14:37:48;8.70;;;5.68;;
52940;SDS011;62001;53.366;6.636;2022-11-15T14:40:15;8.57;;;5.38;;
52940;SDS011;62001;53.366;6.636;2022-11-15T14:42:43;8.60;;;5.43;;
52940;SDS011;62001;53.366;6.636;2022-11-15T14:45:11;8.80;;;5.40;;
52940;SDS011;62001;53.366;6.636;2022-11-15T14:47:39;10.88;;;4.95;;
52940;SDS011;62001;53.366;6.636;2022-11-15T14:50:06;10.77;;;4.95;;
52940;SDS011;62001;53.366;6.636;2022-11-15T14:52:35;12.70;;;5.57;;
52940;SDS011;62001;53.366;6.636;2022-11-15T14:55:02;6.88;;;4.63;;
52940;SDS011;62001;53.366;6.636;2022-11-15T14:57:34;9.13;;;5.20;;
52940;SDS011;62001;53.366;6.636;2022-11-15T15:00:03;8.38;;;4.65;;
52940;SDS011;62001;53.366;6.636;2022-11-15T15:02:30;11.02;;;4.60;;
52940;SDS011;62001;53.366;6.636;2022-11-15T15:04:56;8.80;;;4.57;;
52940;SDS011;62001;53.366;6.636;2022-11-15T15:07:26;7.85;;;4.95;;
52940;SDS011;62001;53.366;6.636;2022-11-15T15:09:52;7.68;;;5.20;;
52940;SDS011;62001;53.366;6.636;2022-11-15T15:12:18;7.10;;;5.00;;
52940;SDS011;62001;53.366;6.636;2022-11-15T15:14:46;7.95;;;5.20;;
52940;SDS011;62001;53.366;6.636;2022-11-15T15:17:13;7.00;;;5.18;;
52940;SDS011;62001;53.366;6.636;2022-11-15T15:19:40;6.97;;;5.15;;
52940;SDS011;62001;53.366;6.636;2022-11-15T15:22:09;10.15;;;5.13;;
52940;SDS011;62001;53.366;6.636;2022-11-15T15:24:44;9.85;;;4.90;;
52940;SDS011;62001;53.366;6.636;2022-11-15T15:27:11;11.23;;;5.10;;
52940;SDS011;62001;53.366;6.636;2022-11-15T15:29:37;8.48;;;4.50;;
52940;SDS011;62001;53.366;6.636;2022-11-15T15:32:04;8.95;;;5.00;;
52940;SDS011;62001;53.366;6.636;2022-11-15T15:34:30;6.47;;;4.70;;
52940;SDS011;62001;53.366;6.636;2022-11-15T15:39:55;8.88;;;4.90;;
52940;SDS011;62001;53.366;6.636;2022-11-15T15:42:22;7.32;;;5.07;;
52940;SDS011;62001;53.366;6.636;2022-11-15T15:44:48;7.97;;;5.05;;
52940;SDS011;62001;53.366;6.636;2022-11-15T15:47:18;8.10;;;5.22;;
52940;SDS011;62001;53.366;6.636;2022-11-15T15:49:46;7.95;;;5.82;;
52940;SDS011;62001;53.366;6.636;2022-11-15T15:52:12;7.72;;;5.47;;
52940;SDS011;62001;53.366;6.636;2022-11-15T15:54:38;11.52;;;6.20;;
52940;SDS011;62001;53.366;6.636;2022-11-15T15:57:05;8.70;;;6.13;;
52940;SDS011;62001;53.366;6.636;2022-11-15T15:59:32;14.10;;;6.20;;
52940;SDS011;62001;53.366;6.636;2022-11-15T16:01:58;9.70;;;5.53;;
52940;SDS011;62001;53.366;6.636;2022-11-15T16:04:24;8.45;;;5.22;;
52940;SDS011;62001;53.366;6.636;2022-11-15T16:06:49;14.05;;;6.00;;
52940;SDS011;62001;53.366;6.636;2022-11-15T16:09:18;9.27;;;6.10;;
52940;SDS011;62001;53.366;6.636;2022-11-15T16:12:04;8.18;;;6.30;;
52940;SDS011;62001;53.366;6.636;2022-11-15T16:14:31;9.32;;;6.80;;
52940;SDS011;62001;53.366;6.636;2022-11-15T16:16:57;10.35;;;6.45;;
52940;SDS011;62001;53.366;6.636;2022-11-15T16:19:22;10.38;;;6.40;;
52940;SDS011;62001;53.366;6.636;2022-11-15T16:21:48;9.73;;;6.70;;
52940;SDS011;62001;53.366;6.636;2022-11-15T16:24:17;9.90;;;6.47;;
52940;SDS011;62001;53.366;6.636;2022-11-15T16:26:44;9.05;;;6.63;;
52940;SDS011;62001;53.366;6.636;2022-11-15T16:29:10;9.98;;;6.97;;
52940;SDS011;62001;53.366;6.636;2022-11-15T16:31:37;9.88;;;7.10;;
52940;SDS011;62001;53.366;6.636;2022-11-15T16:34:03;10.07;;;6.70;;
52940;SDS011;62001;53.366;6.636;2022-11-15T16:36:30;7.90;;;6.40;;
52940;SDS011;62001;53.366;6.636;2022-11-15T16:38:58;8.90;;;7.15;;
52940;SDS011;62001;53.366;6.636;2022-11-15T16:41:24;11.68;;;7.22;;
52940;SDS011;62001;53.366;6.636;2022-11-15T16:43:50;9.20;;;6.85;;
52940;SDS011;62001;53.366;6.636;2022-11-15T16:46:17;9.40;;;6.70;;
52940;SDS011;62001;53.366;6.636;2022-11-15T16:48:45;8.15;;;6.40;;
52940;SDS011;62001;53.366;6.636;2022-11-15T16:51:11;9.68;;;7.05;;
52940;SDS011;62001;53.366;6.636;2022-11-15T16:53:37;9.00;;;6.85;;
52940;SDS011;62001;53.366;6.636;2022-11-15T16:56:03;8.57;;;6.78;;
52940;SDS011;62001;53.366;6.636;2022-11-15T16:58:39;8.60;;;7.45;;
52940;SDS011;62001;53.366;6.636;2022-11-15T17:01:04;10.43;;;7.13;;